createdAt,value
2022-12-08T00:01:51.982Z,98.09
2022-12-08T00:04:23.748Z,98.64
2022-12-08T00:07:10.029Z,98.22
2022-12-08T00:09:40.724Z,98.07
2022-12-08T00:12:13.453Z,98.22
2022-12-08T00:14:43.453Z,97.80
2022-12-08T00:17:12.898Z,97.63
2022-12-08T00:19:40.718Z,97.67
2022-12-08T00:22:11.797Z,98.06
2022-12-08T00:24:40.957Z,97.60
2022-12-08T00:27:09.860Z,97.62
2022-12-08T00:29:36.965Z,97.62
2022-12-08T00:32:05.655Z,97.93
2022-12-08T00:34:33.779Z,97.94
2022-12-08T00:37:01.322Z,98.04
2022-12-08T00:39:30.318Z,97.63
2022-12-08T00:42:14.793Z,97.98
2022-12-08T00:44:44.059Z,98.24
2022-12-08T00:47:13.898Z,98.43
2022-12-08T00:49:41.626Z,98.06
2022-12-08T00:52:09.144Z,98.67
2022-12-08T00:54:36.365Z,98.66
2022-12-08T00:57:04.539Z,98.34
2022-12-08T00:59:31.506Z,98.13
2022-12-08T01:02:01.436Z,97.98
2022-12-08T01:04:28.419Z,98.26
2022-12-08T01:06:57.565Z,98.30
2022-12-08T01:09:25.081Z,97.82
2022-12-08T01:11:53.819Z,97.23
2022-12-08T01:14:21.229Z,97.27
2022-12-08T01:16:48.638Z,97.55
2022-12-08T01:19:16.487Z,97.82
2022-12-08T01:21:47.739Z,97.91
2022-12-08T01:24:20.188Z,98.11
2022-12-08T01:26:49.954Z,97.87
2022-12-08T01:29:19.201Z,98.20
2022-12-08T01:31:48.764Z,98.42
2022-12-08T01:34:20.497Z,98.76
2022-12-08T01:36:52.534Z,98.38
2022-12-08T01:39:20.165Z,98.57
2022-12-08T01:41:49.213Z,98.72
2022-12-08T01:44:18.719Z,98.90
2022-12-08T01:46:56.025Z,98.77
2022-12-08T01:49:31.211Z,98.83
2022-12-08T01:52:13.373Z,98.80
2022-12-08T01:54:50.162Z,98.98
2022-12-08T01:57:55.904Z,99.14
2022-12-08T02:00:28.175Z,98.82
2022-12-08T02:03:04.940Z,98.67
2022-12-08T02:05:36.218Z,98.62
2022-12-08T02:08:07.196Z,98.59
2022-12-08T02:10:37.789Z,98.96
2022-12-08T02:13:14.882Z,98.91
2022-12-08T02:16:00.216Z,98.79
2022-12-08T02:18:40.806Z,98.82
2022-12-08T02:21:29.741Z,98.59
2022-12-08T02:24:05.617Z,99.08
2022-12-08T02:27:06.071Z,98.81
2022-12-08T02:30:07.143Z,98.74
2022-12-08T02:32:43.412Z,98.77
2022-12-08T02:35:28.537Z,98.91
2022-12-08T02:38:20.756Z,98.29
2022-12-08T02:41:15.244Z,98.25
2022-12-08T02:43:46.730Z,98.32
2022-12-08T02:46:23.029Z,99.05
2022-12-08T02:48:52.636Z,99.02
2022-12-08T02:51:20.235Z,99.33
2022-12-08T02:53:48.900Z,99.34
2022-12-08T02:56:35.895Z,99.13
2022-12-08T02:59:26.880Z,98.49
2022-12-08T03:02:46.983Z,98.16
2022-12-08T03:05:18.827Z,97.90
2022-12-08T03:08:16.416Z,97.98
2022-12-08T03:10:53.303Z,98.17
2022-12-08T03:13:30.236Z,98.43
2022-12-08T03:16:01.378Z,98.72
2022-12-08T03:18:31.701Z,98.29
2022-12-08T03:21:00.404Z,98.23
2022-12-08T03:23:31.513Z,98.35
2022-12-08T03:26:09.015Z,98.77
2022-12-08T03:28:36.179Z,98.81
2022-12-08T03:31:07.997Z,98.86
2022-12-08T03:33:40.903Z,98.66
2022-12-08T03:36:10.384Z,98.69
2022-12-08T03:38:50.269Z,98.61
2022-12-08T03:41:21.662Z,99.24
2022-12-08T03:43:57.687Z,98.65
2022-12-08T03:48:53.425Z,98.88
2022-12-08T03:51:25.365Z,98.76
2022-12-08T03:53:53.270Z,98.71
2022-12-08T03:56:28.722Z,98.27
2022-12-08T03:58:55.764Z,98.44
2022-12-08T04:01:24.180Z,97.55
2022-12-08T04:03:51.673Z,97.65
2022-12-08T04:06:21.996Z,97.61
2022-12-08T04:08:51.639Z,97.81
2022-12-08T04:11:19.914Z,98.36
2022-12-08T04:13:47.868Z,98.47
2022-12-08T04:16:22.139Z,98.36
2022-12-08T04:18:49.739Z,98.76
2022-12-08T04:21:17.788Z,99.01
2022-12-08T04:23:46.336Z,98.97
2022-12-08T04:26:14.513Z,98.94
2022-12-08T04:28:44.713Z,99.11
2022-12-08T04:31:13.702Z,98.85
2022-12-08T04:33:40.729Z,98.65
2022-12-08T04:36:08.545Z,98.90
2022-12-08T04:38:35.603Z,98.77
2022-12-08T04:41:03.199Z,98.97
2022-12-08T04:43:30.309Z,98.67
2022-12-08T04:45:58.419Z,98.83
2022-12-08T04:48:25.466Z,99.03
2022-12-08T04:50:52.830Z,99.46
2022-12-08T04:53:20.274Z,99.21
2022-12-08T04:55:49.733Z,98.99
2022-12-08T04:58:19.853Z,99.27
2022-12-08T05:00:48.612Z,99.38
2022-12-08T05:03:28.123Z,98.66
2022-12-08T05:05:56.433Z,98.72
2022-12-08T05:08:23.680Z,98.79
2022-12-08T05:10:52.080Z,98.90
2022-12-08T05:13:24.614Z,98.60
2022-12-08T05:15:53.705Z,98.80
2022-12-08T05:18:27.039Z,98.47
2022-12-08T05:20:56.954Z,98.31
2022-12-08T05:23:28.646Z,98.02
2022-12-08T05:25:56.771Z,98.07
2022-12-08T05:31:19.795Z,98.56
2022-12-08T05:34:03.700Z,98.27
2022-12-08T05:36:34.887Z,98.34
2022-12-08T05:42:07.492Z,98.09
2022-12-08T05:44:37.319Z,98.33
2022-12-08T05:47:08.814Z,98.15
2022-12-08T06:00:41.114Z,98.78
2022-12-08T06:03:11.470Z,98.30
2022-12-08T06:05:41.125Z,98.53
2022-12-08T06:08:08.944Z,98.41
2022-12-08T06:21:30.435Z,98.17
2022-12-08T06:26:50.831Z,98.72
2022-12-08T06:29:20.281Z,98.28
2022-12-08T06:32:00.351Z,98.11
2022-12-08T06:34:27.509Z,97.90
2022-12-08T06:37:09.981Z,97.83
2022-12-08T06:39:37.451Z,97.95
2022-12-08T06:45:20.126Z,97.08
2022-12-08T06:47:49.387Z,97.31
2022-12-08T06:53:17.990Z,97.31
2022-12-08T06:56:00.252Z,96.85
2022-12-08T06:58:46.053Z,96.72
2022-12-08T07:01:26.124Z,96.96
2022-12-08T07:03:53.585Z,97.12
2022-12-08T07:09:25.810Z,97.36
2022-12-08T07:11:55.057Z,97.27
2022-12-08T07:14:27.021Z,97.13
2022-12-08T07:16:54.666Z,97.07
2022-12-08T07:19:22.886Z,97.33
2022-12-08T07:21:52.636Z,97.14
2022-12-08T07:24:44.739Z,97.12
2022-12-08T07:27:22.778Z,96.63
2022-12-08T07:35:17.797Z,96.99
2022-12-08T07:37:45.417Z,97.28
2022-12-08T07:42:56.697Z,97.23
2022-12-08T07:45:31.457Z,97.15
2022-12-08T07:47:59.410Z,97.22
2022-12-08T07:58:53.575Z,97.38
2022-12-08T08:01:33.357Z,97.21
2022-12-08T08:04:15.397Z,97.28
2022-12-08T08:12:30.114Z,97.31
2022-12-08T08:20:20.094Z,97.51
2022-12-08T08:28:40.800Z,97.39
2022-12-08T08:31:29.095Z,97.07
2022-12-08T08:34:13.409Z,97.23
2022-12-08T08:36:43.682Z,96.94
2022-12-08T08:39:12.541Z,97.33
2022-12-08T08:41:44.874Z,96.73
2022-12-08T08:46:55.355Z,96.35
2022-12-08T08:49:22.782Z,96.83
2022-12-08T08:54:47.010Z,96.84
2022-12-08T09:02:40.959Z,96.24
2022-12-08T09:13:32.389Z,95.58
2022-12-08T09:16:12.923Z,94.96
2022-12-08T09:21:27.985Z,95.44
2022-12-08T09:24:08.436Z,95.52
2022-12-08T09:29:17.829Z,95.58
2022-12-08T09:34:28.907Z,96.02
2022-12-08T09:36:58.509Z,95.83
2022-12-08T09:39:28.593Z,95.87
2022-12-08T09:45:14.440Z,96.59
2022-12-08T09:48:09.643Z,96.85
2022-12-08T09:53:51.184Z,96.75
2022-12-08T09:56:25.354Z,96.63
2022-12-08T09:59:10.624Z,96.27
2022-12-08T10:01:55.053Z,96.16
2022-12-08T10:04:34.540Z,96.54
2022-12-08T10:13:38.665Z,96.17
2022-12-08T10:16:23.122Z,96.18
2022-12-08T10:19:23.474Z,96.01
2022-12-08T10:24:52.137Z,95.54
2022-12-08T10:30:03.448Z,94.90
2022-12-08T10:32:39.878Z,95.11
2022-12-08T10:35:08.453Z,94.78
2022-12-08T10:52:29.836Z,93.65
2022-12-08T10:55:08.706Z,93.07
2022-12-08T10:57:44.663Z,93.70
2022-12-08T11:03:09.193Z,93.94
2022-12-08T11:05:46.923Z,93.64
2022-12-08T11:10:58.193Z,93.97
2022-12-08T11:13:42.237Z,93.62
2022-12-08T11:19:28.650Z,92.77
2022-12-08T11:21:56.059Z,92.50
2022-12-08T11:24:38.999Z,91.72
2022-12-08T11:27:07.479Z,91.36
2022-12-08T11:29:36.340Z,90.90
2022-12-08T11:35:04.610Z,90.72
2022-12-08T11:37:53.205Z,90.51
2022-12-08T11:40:44.229Z,91.49
2022-12-08T11:43:39.830Z,91.22
2022-12-08T11:46:43.271Z,90.86
2022-12-08T11:52:54.510Z,90.41
2022-12-08T11:58:43.051Z,89.71
2022-12-08T12:11:52.675Z,89.33
2022-12-08T12:20:55.770Z,88.88
2022-12-08T12:26:38.349Z,88.40
2022-12-08T12:29:13.649Z,88.30
2022-12-08T12:31:47.675Z,88.49
2022-12-08T12:34:28.121Z,89.02
2022-12-08T12:37:23.478Z,89.20
2022-12-08T12:40:01.799Z,89.06
2022-12-08T12:42:52.080Z,89.39
2022-12-08T12:45:35.891Z,89.97
2022-12-08T12:48:24.343Z,90.03
2022-12-08T12:51:45.589Z,90.57
2022-12-08T12:57:27.787Z,91.13
2022-12-08T13:02:50.696Z,90.78
2022-12-08T13:05:33.768Z,91.32
2022-12-08T13:08:24.194Z,90.79
2022-12-08T13:11:11.485Z,90.38
2022-12-08T13:14:00.672Z,90.47
2022-12-08T13:16:36.659Z,91.05
2022-12-08T13:22:45.453Z,90.84
2022-12-08T13:25:47.798Z,90.39
2022-12-08T13:28:27.630Z,90.90
2022-12-08T13:39:47.407Z,91.01
2022-12-08T13:42:51.785Z,90.93
2022-12-08T13:57:10.478Z,91.55
2022-12-08T13:59:45.535Z,91.70
2022-12-08T14:05:47.517Z,92.37
2022-12-08T14:11:44.702Z,92.54
2022-12-08T14:15:01.225Z,92.64
2022-12-08T14:22:46.983Z,93.00
2022-12-08T14:25:17.047Z,93.12
2022-12-08T14:30:32.099Z,93.14
2022-12-08T14:35:56.165Z,92.89
2022-12-08T14:38:27.283Z,93.04
2022-12-08T14:41:14.428Z,92.79
2022-12-08T14:46:34.160Z,93.50
2022-12-08T14:49:07.039Z,93.47
2022-12-08T14:54:28.127Z,93.87
2022-12-08T15:05:22.463Z,94.61
2022-12-08T15:10:39.968Z,94.73
2022-12-08T15:13:10.137Z,95.18
2022-12-08T15:15:57.982Z,95.12
2022-12-08T15:18:39.941Z,94.99
2022-12-08T15:21:12.879Z,95.23
2022-12-08T15:23:45.087Z,95.13
2022-12-08T15:26:23.796Z,95.20
2022-12-08T15:28:51.100Z,95.51
2022-12-08T15:31:18.936Z,95.20
2022-12-08T15:33:46.082Z,95.60
2022-12-08T15:36:13.592Z,95.80
2022-12-08T15:38:40.641Z,95.66
2022-12-08T15:41:13.001Z,95.44
2022-12-08T15:43:41.804Z,95.58
2022-12-08T15:46:09.230Z,95.43
2022-12-08T15:48:37.926Z,95.65
2022-12-08T15:51:05.587Z,95.51
2022-12-08T15:53:33.242Z,95.77
2022-12-08T15:58:55.119Z,96.35
2022-12-08T16:01:24.017Z,96.26
2022-12-08T16:09:33.460Z,96.47
2022-12-08T16:12:19.719Z,96.58
2022-12-08T16:15:47.088Z,96.88
2022-12-08T16:17:34.972Z,96.55
2022-12-08T16:20:02.818Z,96.98
2022-12-08T16:25:21.482Z,97.76
2022-12-08T16:28:03.150Z,98.04
2022-12-08T16:30:36.018Z,98.18
2022-12-08T16:33:03.466Z,98.50
2022-12-08T16:35:30.892Z,98.67
2022-12-08T16:37:58.565Z,98.89
2022-12-08T16:40:25.748Z,99.29
2022-12-08T16:42:55.141Z,99.21
2022-12-08T16:48:49.923Z,99.21
2022-12-08T16:51:25.109Z,99.21
2022-12-08T16:53:55.609Z,99.56
2022-12-08T16:56:28.761Z,99.83
2022-12-08T16:58:59.982Z,99.52
2022-12-08T17:04:31.718Z,100.00
2022-12-08T17:06:59.476Z,99.90
2022-12-08T17:09:28.611Z,100.00
2022-12-08T17:12:03.256Z,99.92
2022-12-08T17:14:35.441Z,100.00
2022-12-08T17:17:03.013Z,100.00
2022-12-08T17:19:30.732Z,100.00
2022-12-08T17:21:57.722Z,100.00
2022-12-08T17:24:29.053Z,100.00
2022-12-08T17:27:00.040Z,100.00
2022-12-08T17:29:27.421Z,100.00
2022-12-08T17:31:55.381Z,100.00
2022-12-08T17:34:26.185Z,100.00
2022-12-08T17:36:54.520Z,100.00
2022-12-08T17:39:22.389Z,100.00
2022-12-08T17:41:49.762Z,100.00
2022-12-08T17:44:20.158Z,100.00
2022-12-08T17:47:07.212Z,100.00
2022-12-08T17:49:34.617Z,100.00
2022-12-08T17:52:05.182Z,100.00
2022-12-08T17:54:33.029Z,100.00
2022-12-08T17:57:00.176Z,100.00
2022-12-08T17:59:30.788Z,100.00
2022-12-08T18:01:58.940Z,100.00
2022-12-08T18:04:27.229Z,100.00
2022-12-08T18:06:54.992Z,100.00
2022-12-08T18:09:23.578Z,100.00
2022-12-08T18:11:52.045Z,100.00
2022-12-08T18:14:20.278Z,99.97
2022-12-08T18:16:48.161Z,100.00
2022-12-08T18:19:16.222Z,99.81
2022-12-08T18:21:43.561Z,99.50
2022-12-08T18:24:23.321Z,99.51
2022-12-08T18:26:52.486Z,99.57
2022-12-08T18:29:22.671Z,99.64
2022-12-08T18:31:52.450Z,99.54
2022-12-08T18:34:19.924Z,99.30
2022-12-08T18:36:47.676Z,99.23
2022-12-08T18:39:35.195Z,99.31
2022-12-08T18:42:22.869Z,99.21
2022-12-08T18:44:50.680Z,99.70
2022-12-08T18:47:18.588Z,99.55
2022-12-08T18:49:49.084Z,99.09
2022-12-08T18:52:22.726Z,99.43
2022-12-08T18:55:10.074Z,99.24
2022-12-08T18:57:48.107Z,99.01
2022-12-08T19:00:18.499Z,99.03
2022-12-08T19:02:46.038Z,99.08
2022-12-08T19:05:14.290Z,99.18
2022-12-08T19:07:42.834Z,99.42
2022-12-08T19:10:10.955Z,99.20
2022-12-08T19:12:38.073Z,99.40
2022-12-08T19:15:06.133Z,99.73
2022-12-08T19:17:33.395Z,99.37
2022-12-08T19:20:00.902Z,99.71
2022-12-08T19:22:27.891Z,99.82
2022-12-08T19:24:55.479Z,100.00
2022-12-08T19:27:23.336Z,99.93
2022-12-08T19:29:50.739Z,99.82
2022-12-08T19:32:17.817Z,100.00
2022-12-08T19:34:45.486Z,100.00
2022-12-08T19:37:13.101Z,100.00
2022-12-08T19:39:59.671Z,100.00
2022-12-08T19:42:45.729Z,100.00
2022-12-08T19:45:21.716Z,100.00
2022-12-08T19:47:48.877Z,100.00
2022-12-08T19:50:37.589Z,100.00
2022-12-08T19:53:06.104Z,100.00
2022-12-08T19:55:34.413Z,100.00
2022-12-08T19:58:02.082Z,100.00
2022-12-08T20:00:34.109Z,100.00
2022-12-08T20:03:02.325Z,100.00
2022-12-08T20:05:32.852Z,100.00
2022-12-08T20:08:07.497Z,100.00
2022-12-08T20:10:42.348Z,100.00
2022-12-08T20:13:31.125Z,100.00
2022-12-08T20:15:58.537Z,100.00
2022-12-08T20:18:31.545Z,100.00
2022-12-08T20:20:59.638Z,100.00
2022-12-08T20:23:31.503Z,100.00
2022-12-08T20:26:00.227Z,100.00
2022-12-08T20:28:27.359Z,100.00
2022-12-08T20:31:00.054Z,100.00
2022-12-08T20:33:36.032Z,100.00
2022-12-08T20:36:08.204Z,100.00
2022-12-08T20:38:36.329Z,100.00
2022-12-08T20:41:16.713Z,100.00
2022-12-08T20:43:46.059Z,100.00
2022-12-08T20:46:17.529Z,100.00
2022-12-08T20:48:44.946Z,100.00
2022-12-08T20:51:17.226Z,100.00
2022-12-08T20:53:45.303Z,100.00
2022-12-08T20:56:20.326Z,100.00
2022-12-08T20:58:48.322Z,100.00
2022-12-08T21:01:18.260Z,100.00
2022-12-08T21:03:46.983Z,100.00
2022-12-08T21:06:15.185Z,100.00
2022-12-08T21:08:43.575Z,100.00
2022-12-08T21:11:12.005Z,100.00
2022-12-08T21:13:39.515Z,100.00
2022-12-08T21:16:09.471Z,100.00
2022-12-08T21:18:39.615Z,100.00
2022-12-08T21:21:27.137Z,100.00
2022-12-08T21:23:57.647Z,100.00
2022-12-08T21:26:28.110Z,100.00
2022-12-08T21:28:55.621Z,100.00
2022-12-08T21:31:23.740Z,100.00
2022-12-08T21:33:51.093Z,100.00
2022-12-08T21:36:21.002Z,100.00
2022-12-08T21:38:48.381Z,100.00
2022-12-08T21:41:40.889Z,100.00
2022-12-08T21:44:10.313Z,100.00
2022-12-08T21:46:38.550Z,100.00
2022-12-08T21:49:07.282Z,100.00
2022-12-08T21:51:42.347Z,100.00
2022-12-08T21:54:16.743Z,100.00
2022-12-08T21:56:48.323Z,100.00
2022-12-08T21:59:16.410Z,100.00
2022-12-08T22:01:44.249Z,100.00
2022-12-08T22:04:27.289Z,100.00
2022-12-08T22:06:55.140Z,100.00
2022-12-08T22:09:24.368Z,100.00
2022-12-08T22:11:52.474Z,100.00
2022-12-08T22:14:20.095Z,100.00
2022-12-08T22:16:48.058Z,100.00
2022-12-08T22:19:17.369Z,100.00
2022-12-08T22:21:45.412Z,100.00
2022-12-08T22:24:12.714Z,100.00
2022-12-08T22:26:48.356Z,100.00
2022-12-08T22:29:16.441Z,100.00
2022-12-08T22:31:46.266Z,100.00
2022-12-08T22:34:14.813Z,100.00
2022-12-08T22:36:43.279Z,100.00
2022-12-08T22:39:13.537Z,100.00
2022-12-08T22:41:40.930Z,100.00
2022-12-08T22:44:09.064Z,100.00
2022-12-08T22:46:37.602Z,100.00
2022-12-08T22:49:04.696Z,100.00
2022-12-08T22:51:32.081Z,100.00
2022-12-08T22:53:59.360Z,100.00
2022-12-08T22:56:30.675Z,100.00
2022-12-08T22:58:58.495Z,100.00
2022-12-08T23:01:29.995Z,100.00
2022-12-08T23:03:58.728Z,100.00
2022-12-08T23:06:28.097Z,100.00
2022-12-08T23:08:57.207Z,100.00
2022-12-08T23:11:27.988Z,100.00
2022-12-08T23:14:03.139Z,100.00
2022-12-08T23:16:30.793Z,100.00
2022-12-08T23:18:59.328Z,100.00
2022-12-08T23:21:27.063Z,100.00
2022-12-08T23:23:54.299Z,100.00
2022-12-08T23:26:28.085Z,100.00
2022-12-08T23:28:56.377Z,100.00
2022-12-08T23:31:24.855Z,100.00
2022-12-08T23:33:54.238Z,100.00
2022-12-08T23:36:26.343Z,100.00
2022-12-08T23:38:54.315Z,100.00
2022-12-08T23:41:22.090Z,100.00
2022-12-08T23:43:52.858Z,100.00
2022-12-08T23:46:21.973Z,100.00
2022-12-08T23:48:50.198Z,100.00
2022-12-08T23:51:18.512Z,100.00
2022-12-08T23:53:45.975Z,100.00
2022-12-08T23:56:15.868Z,100.00
2022-12-08T23:58:43.630Z,100.00
